Impacts METAR Board
IDs:

KLAX - Los Angeles Intl, CA, US

Updated at: 1300 UTC 07 Jul 2020
Potential Impact None Slight Moderate High
Time 07/01Z 07/02Z 07/03Z 07/04Z 07/05Z 07/06Z 07/07Z 07/08Z 07/09Z 07/10Z 07/11Z 07/12Z 07/13Z
Temp73 72 70 69 68 67 68 67 67 66 65 64 64
Dewpt59 57 57 59 58 58 56 53 54 56 55 56 60
Altim29.83 29.83 29.82 29.83 29.85 29.86 29.86 29.86 29.86 29.85 29.85 29.86 29.88
VIS10 10 10 10 10 10 10 10 10 10 10 10 5
CIG-- -- -- -- -- -- -- -- -- -- -- -- --
CoverCLRCLRCLRCLRCLRCLRCLRCLRCLRCLRCLRFEWFEW
FltCatVFRVFRVFRVFRVFRVFRVFRVFRVFRVFRVFRVFRMVFR
WX------------------------BR
WDir250250250240250230250270330000100
WSpd12 10 7 6 6 6 4 5 4 0 0 0 3
WGst-- -- -- -- -- -- -- -- -- -- -- -- --
Raw hourly METARs
KLAX 070053Z 25012KT 10SM CLR 23/15 A2983 RMK AO2 SLP100 T02280150
KLAX 070153Z 25010KT 10SM CLR 22/14 A2983 RMK AO2 SLP102 T02220139
KLAX 070253Z 25007KT 10SM CLR 21/14 A2982 RMK AO2 SLP097 T02110139 56007
KLAX 070353Z 24006KT 10SM CLR 21/15 A2983 RMK AO2 SLP100 T02060150
KLAX 070453Z 25006KT 10SM CLR 20/14 A2985 RMK AO2 SLP105 T02000144
KLAX 070553Z 23006KT 10SM CLR 19/14 A2986 RMK AO2 SLP107 T01940144 10239 20194 51010
KLAX 070653Z 25004KT 10SM CLR 20/13 A2986 RMK AO2 SLP108 T02000133
KLAX 070753Z 27005KT 10SM CLR 19/12 A2986 RMK AO2 SLP107 T01940117 402560172
KLAX 070853Z 33004KT 10SM CLR 19/12 A2986 RMK AO2 SLP107 T01940122 51000
KLAX 070953Z 00000KT 10SM CLR 19/13 A2985 RMK AO2 SLP105 T01890133
KLAX 071053Z 00000KT 10SM CLR 18/13 A2985 RMK AO2 SLP105 T01830128
KLAX 071153Z 00000KT 10SM FEW008 18/13 A2986 RMK AO2 SLP109 T01780133 10200 20178 53002
KLAX 071253Z 10003KT 5SM BR FEW008 FEW011 18/16 A2988 RMK AO2 SLP114 T01780156



Page loaded:  13:49 UTC  |   06:49 AM Pacific  |   07:49 AM Mountain  |   08:49 AM Central  |   09:49 AM Eastern

 

ADVISORIES

FORECASTS

FORECASTS

OBSERVATIONS

USER TOOLS

ABOUT US